createdAt,value
2018-06-04T00:02:10.990Z,100056.00
2018-06-04T00:04:38.609Z,100051.00
2018-06-04T00:07:06.154Z,100053.00
2018-06-04T00:09:34.755Z,100060.00
2018-06-04T00:12:02.320Z,100046.00
2018-06-04T00:14:29.903Z,100040.00
2018-06-04T00:16:57.451Z,100029.00
2018-06-04T00:19:25.010Z,100046.00
2018-06-04T00:21:52.570Z,100029.00
2018-06-04T00:24:20.106Z,100035.00
2018-06-04T00:26:47.658Z,100031.00
2018-06-04T00:29:15.220Z,100032.00
2018-06-04T00:31:42.783Z,100038.00
2018-06-04T00:34:10.334Z,100031.00
2018-06-04T00:36:37.878Z,100026.00
2018-06-04T00:39:07.775Z,100029.00
2018-06-04T00:41:35.683Z,100027.00
2018-06-04T00:44:03.238Z,100022.00
2018-06-04T00:46:30.911Z,100026.00
2018-06-04T00:48:58.461Z,100028.00
2018-06-04T00:51:26.001Z,100025.00
2018-06-04T00:53:53.529Z,100021.00
2018-06-04T00:56:22.586Z,100022.00
2018-06-04T00:58:50.134Z,100035.00
2018-06-04T01:01:17.727Z,100022.00
2018-06-04T01:03:45.283Z,100024.00
2018-06-04T01:06:12.850Z,100030.00
2018-06-04T01:08:40.389Z,100027.00
2018-06-04T01:11:09.051Z,100023.00
2018-06-04T01:13:36.603Z,100024.00
2018-06-04T01:16:04.196Z,100025.00
2018-06-04T01:18:31.754Z,100015.00
2018-06-04T01:20:59.315Z,100016.00
2018-06-04T01:23:26.845Z,100009.00
2018-06-04T01:25:54.397Z,100005.00
2018-06-04T01:28:21.939Z,99999.00
2018-06-04T01:30:49.498Z,100003.00
2018-06-04T01:33:17.061Z,100004.00
2018-06-04T01:35:44.634Z,100004.00
2018-06-04T01:38:12.258Z,99998.00
2018-06-04T01:40:39.803Z,99996.00
2018-06-04T01:43:07.361Z,99990.00
2018-06-04T01:45:34.996Z,99996.00
2018-06-04T01:48:02.560Z,99991.00
2018-06-04T01:50:30.106Z,99990.00
2018-06-04T01:52:57.670Z,99995.00
2018-06-04T01:55:25.227Z,100000.00
2018-06-04T01:57:52.786Z,100001.00
2018-06-04T02:00:20.345Z,99996.00
2018-06-04T02:02:47.897Z,99998.00
2018-06-04T02:05:15.453Z,99997.00
2018-06-04T02:07:43.009Z,99993.00
2018-06-04T02:10:10.552Z,99987.00
2018-06-04T02:12:38.107Z,99987.00
2018-06-04T02:15:05.677Z,99989.00
2018-06-04T02:17:33.233Z,99983.00
2018-06-04T02:20:00.783Z,99982.00
2018-06-04T02:22:28.325Z,99989.00
2018-06-04T02:24:55.870Z,99993.00
2018-06-04T02:27:23.422Z,99986.00
2018-06-04T02:29:50.982Z,99986.00
2018-06-04T02:32:18.569Z,99990.00
2018-06-04T02:34:46.130Z,99990.00
2018-06-04T02:37:13.709Z,99987.00
2018-06-04T02:39:41.266Z,99976.00
2018-06-04T02:42:08.825Z,99983.00
2018-06-04T02:44:36.385Z,99973.00
2018-06-04T02:47:04.119Z,99977.00
2018-06-04T02:49:31.670Z,99974.00
2018-06-04T02:51:59.219Z,99975.00
2018-06-04T02:54:26.774Z,99971.00
2018-06-04T02:56:54.325Z,99975.00
2018-06-04T02:59:21.887Z,99968.00
2018-06-04T03:01:49.459Z,99972.00
2018-06-04T03:04:17.038Z,99972.00
2018-06-04T03:06:44.587Z,99968.00
2018-06-04T03:09:12.159Z,99960.00
2018-06-04T03:11:39.724Z,99959.00
2018-06-04T03:14:07.274Z,99968.00
2018-06-04T03:16:34.839Z,99964.00
2018-06-04T03:19:02.415Z,99966.00
2018-06-04T03:21:29.957Z,99961.00
2018-06-04T03:23:57.520Z,99967.00
2018-06-04T03:26:25.058Z,99958.00
2018-06-04T03:28:52.638Z,99964.00
2018-06-04T03:31:20.198Z,99958.00
2018-06-04T03:33:47.753Z,99951.00
2018-06-04T03:36:15.289Z,99960.00
2018-06-04T03:38:42.845Z,99956.00
2018-06-04T03:41:10.393Z,99956.00
2018-06-04T03:43:37.949Z,99957.00
2018-06-04T03:46:05.501Z,99958.00
2018-06-04T03:48:33.072Z,99956.00
2018-06-04T03:51:00.622Z,99953.00
2018-06-04T03:53:28.222Z,99954.00
2018-06-04T03:55:55.762Z,99966.00
2018-06-04T03:58:23.309Z,99966.00
2018-06-04T04:00:50.878Z,99968.00
2018-06-04T04:03:18.485Z,99964.00
2018-06-04T04:05:46.062Z,99957.00
2018-06-04T04:08:13.621Z,99957.00
2018-06-04T04:10:41.170Z,99963.00
2018-06-04T04:13:08.721Z,99950.00
2018-06-04T04:15:36.281Z,99949.00
2018-06-04T04:18:03.826Z,99938.00
2018-06-04T04:20:31.363Z,99945.00
2018-06-04T04:22:58.897Z,99951.00
2018-06-04T04:25:26.482Z,99953.00
2018-06-04T04:27:54.143Z,99950.00
2018-06-04T04:30:21.643Z,99957.00
2018-06-04T04:32:49.181Z,99955.00
2018-06-04T04:35:16.733Z,99950.00
2018-06-04T04:37:44.278Z,99948.00
2018-06-04T04:40:11.842Z,99947.00
2018-06-04T04:42:39.406Z,99961.00
2018-06-04T04:45:06.969Z,99955.00
2018-06-04T04:47:34.514Z,99967.00
2018-06-04T04:50:02.098Z,99960.00
2018-06-04T04:52:29.649Z,99964.00
2018-06-04T04:54:57.194Z,99971.00
2018-06-04T04:57:24.767Z,99973.00
2018-06-04T04:59:52.339Z,99968.00
2018-06-04T05:02:19.903Z,99961.00
2018-06-04T05:04:47.466Z,99955.00
2018-06-04T05:07:15.031Z,99948.00
2018-06-04T05:09:42.569Z,99957.00
2018-06-04T05:12:10.137Z,99950.00
2018-06-04T05:14:37.679Z,99955.00
2018-06-04T05:17:05.255Z,99953.00
2018-06-04T05:19:32.799Z,99953.00
2018-06-04T05:22:00.361Z,99957.00
2018-06-04T05:24:27.971Z,99954.00
2018-06-04T05:26:55.539Z,99952.00
2018-06-04T05:29:23.082Z,99954.00
2018-06-04T05:31:50.663Z,99946.00
2018-06-04T05:34:18.161Z,99957.00
2018-06-04T05:36:45.722Z,99956.00
2018-06-04T05:39:13.302Z,99951.00
2018-06-04T05:41:53.947Z,99952.00
2018-06-04T05:44:21.562Z,99938.00
2018-06-04T05:46:49.100Z,99946.00
2018-06-04T05:49:16.647Z,99948.00
2018-06-04T05:51:44.228Z,99953.00
2018-06-04T05:54:11.837Z,99953.00
2018-06-04T05:56:45.683Z,99955.00
2018-06-04T05:59:13.220Z,99954.00
2018-06-04T06:01:40.780Z,99952.00
2018-06-04T06:04:08.330Z,99953.00
2018-06-04T06:06:35.910Z,99951.00
2018-06-04T06:09:07.375Z,99945.00
2018-06-04T06:11:35.057Z,99944.00
2018-06-04T06:14:02.904Z,99940.00
2018-06-04T06:16:30.483Z,99935.00
2018-06-04T06:18:58.026Z,99935.00
2018-06-04T06:21:25.585Z,99927.00
2018-06-04T06:23:53.141Z,99906.00
2018-06-04T06:26:20.689Z,99900.00
2018-06-04T06:28:48.239Z,99887.00
2018-06-04T06:31:15.794Z,99877.00
2018-06-04T06:33:43.330Z,99873.00
2018-06-04T06:36:10.881Z,99876.00
2018-06-04T06:38:38.426Z,99856.00
2018-06-04T06:41:06.002Z,99847.00
2018-06-04T06:43:33.555Z,99848.00
2018-06-04T06:46:01.107Z,99859.00
2018-06-04T06:48:28.641Z,99859.00
2018-06-04T06:50:56.185Z,99863.00
2018-06-04T06:53:23.732Z,99870.00
2018-06-04T06:55:51.298Z,99879.00
2018-06-04T06:58:18.859Z,99871.00
2018-06-04T07:00:46.404Z,99859.00
2018-06-04T07:03:13.966Z,99874.00
2018-06-04T07:05:41.526Z,99864.00
2018-06-04T07:08:09.101Z,99868.00
2018-06-04T07:10:36.637Z,99858.00
2018-06-04T07:13:04.201Z,99874.00
2018-06-04T07:15:31.765Z,99887.00
2018-06-04T07:17:59.319Z,99885.00
2018-06-04T07:20:26.870Z,99879.00
2018-06-04T07:22:54.422Z,99885.00
2018-06-04T07:25:21.962Z,99896.00
2018-06-04T07:27:49.514Z,99893.00
2018-06-04T07:30:17.060Z,99879.00
2018-06-04T07:32:44.602Z,99835.00
2018-06-04T07:35:12.151Z,99904.00
2018-06-04T07:37:39.770Z,99919.00
2018-06-04T07:40:08.498Z,99913.00
2018-06-04T07:42:36.049Z,99915.00
2018-06-04T07:45:03.659Z,99932.00
2018-06-04T07:47:32.066Z,99921.00
2018-06-04T07:50:00.507Z,99929.00
2018-06-04T07:52:28.464Z,99914.00
2018-06-04T07:54:56.054Z,99930.00
2018-06-04T07:57:23.849Z,99937.00
2018-06-04T07:59:51.390Z,99936.00
2018-06-04T08:02:18.936Z,99919.00
2018-06-04T08:04:46.461Z,99929.00
2018-06-04T08:07:14.002Z,99916.00
2018-06-04T08:09:41.575Z,99912.00
2018-06-04T08:12:09.135Z,99906.00
2018-06-04T08:14:36.689Z,99910.00
2018-06-04T08:17:04.491Z,99904.00
2018-06-04T08:19:32.058Z,99895.00
2018-06-04T08:21:59.623Z,99903.00
2018-06-04T08:24:27.163Z,99901.00
2018-06-04T08:26:54.714Z,99915.00
2018-06-04T08:29:22.315Z,99914.00
2018-06-04T08:31:49.848Z,99917.00
2018-06-04T08:34:17.390Z,99893.00
2018-06-04T08:36:44.949Z,99889.00
2018-06-04T08:39:12.519Z,99906.00
2018-06-04T08:41:40.069Z,99889.00
2018-06-04T08:44:07.670Z,99885.00
2018-06-04T08:46:35.221Z,99886.00
2018-06-04T08:49:02.787Z,99888.00
2018-06-04T08:51:30.330Z,99885.00
2018-06-04T08:53:57.902Z,99896.00
2018-06-04T08:56:27.511Z,99890.00
2018-06-04T08:58:55.063Z,99896.00
2018-06-04T09:01:22.621Z,99896.00
2018-06-04T09:03:50.141Z,99890.00
2018-06-04T09:06:17.714Z,99886.00
2018-06-04T09:08:45.264Z,99877.00
2018-06-04T09:11:12.814Z,99887.00
2018-06-04T09:13:40.361Z,99887.00
2018-06-04T09:16:07.913Z,99887.00
2018-06-04T09:18:35.474Z,99882.00
2018-06-04T09:21:03.065Z,99889.00
2018-06-04T09:23:41.311Z,99870.00
2018-06-04T09:26:08.879Z,99858.00
2018-06-04T09:28:36.409Z,99848.00
2018-06-04T09:31:03.960Z,99857.00
2018-06-04T09:33:31.507Z,99854.00
2018-06-04T09:35:59.053Z,99851.00
2018-06-04T09:38:26.597Z,99844.00
2018-06-04T09:40:54.138Z,99858.00
2018-06-04T09:43:21.678Z,99878.00
2018-06-04T09:45:49.258Z,99875.00
2018-06-04T09:48:16.793Z,99875.00
2018-06-04T09:50:44.330Z,99871.00
2018-06-04T09:53:11.900Z,99875.00
2018-06-04T09:55:39.455Z,99848.00
2018-06-04T09:58:07.006Z,99854.00
2018-06-04T10:00:35.317Z,99842.00
2018-06-04T10:03:04.718Z,99859.00
2018-06-04T10:05:32.271Z,99853.00
2018-06-04T10:07:59.846Z,99846.00
2018-06-04T10:10:27.383Z,99850.00
2018-06-04T10:12:54.923Z,99849.00
2018-06-04T10:15:22.522Z,99839.00
2018-06-04T10:17:50.057Z,99850.00
2018-06-04T10:20:17.597Z,99838.00
2018-06-04T10:22:45.154Z,99827.00
2018-06-04T10:25:12.725Z,99825.00
2018-06-04T10:27:40.281Z,99829.00
2018-06-04T10:30:07.833Z,99827.00
2018-06-04T10:32:35.386Z,99819.00
2018-06-04T10:35:02.955Z,99804.00
2018-06-04T10:37:30.550Z,99813.00
2018-06-04T10:39:58.097Z,99817.00
2018-06-04T10:42:25.650Z,99806.00
2018-06-04T10:44:53.202Z,99807.00
2018-06-04T10:47:20.762Z,99823.00
2018-06-04T10:49:48.306Z,99823.00
2018-06-04T10:52:15.856Z,99812.00
2018-06-04T10:54:43.421Z,99820.00
2018-06-04T10:57:10.966Z,99807.00
2018-06-04T10:59:38.522Z,99804.00
2018-06-04T11:02:06.078Z,99797.00
2018-06-04T11:04:33.650Z,99796.00
2018-06-04T11:07:01.231Z,99792.00
2018-06-04T11:09:28.807Z,99784.00
2018-06-04T11:11:56.360Z,99788.00
2018-06-04T11:14:23.918Z,99794.00
2018-06-04T11:16:51.438Z,99795.00
2018-06-04T11:19:19.038Z,99786.00
2018-06-04T11:21:46.582Z,99789.00
2018-06-04T11:24:14.162Z,99789.00
2018-06-04T11:26:41.794Z,99788.00
2018-06-04T11:29:09.366Z,99773.00
2018-06-04T11:31:36.921Z,99776.00
2018-06-04T11:34:04.663Z,99774.00
2018-06-04T11:36:32.210Z,99788.00
2018-06-04T11:38:59.754Z,99781.00
2018-06-04T11:41:27.297Z,99770.00
2018-06-04T11:43:54.907Z,99778.00
2018-06-04T11:46:22.419Z,99762.00
2018-06-04T11:48:49.973Z,99773.00
2018-06-04T11:51:17.528Z,99773.00
2018-06-04T11:53:45.074Z,99773.00
2018-06-04T11:56:12.614Z,99773.00
2018-06-04T11:58:40.200Z,99757.00
2018-06-04T12:01:07.742Z,99758.00
2018-06-04T12:03:35.285Z,99756.00
2018-06-04T12:06:02.837Z,99752.00
2018-06-04T12:08:30.386Z,99751.00
2018-06-04T12:10:57.950Z,99748.00
2018-06-04T12:13:25.497Z,99743.00
2018-06-04T12:15:53.046Z,99738.00
2018-06-04T12:18:20.582Z,99729.00
2018-06-04T12:20:48.155Z,99727.00
2018-06-04T12:23:15.701Z,99727.00
2018-06-04T12:25:43.241Z,99726.00
2018-06-04T12:28:10.833Z,99716.00
2018-06-04T12:30:38.366Z,99720.00
2018-06-04T12:33:05.926Z,99717.00
2018-06-04T12:35:33.478Z,99712.00
2018-06-04T12:38:01.038Z,99707.00
2018-06-04T12:40:28.592Z,99700.00
2018-06-04T12:42:56.149Z,99698.00
2018-06-04T12:45:23.701Z,99705.00
2018-06-04T12:47:51.236Z,99702.00
2018-06-04T12:50:18.813Z,99696.00
2018-06-04T12:52:46.332Z,99697.00
2018-06-04T12:55:13.962Z,99684.00
2018-06-04T12:57:41.538Z,99688.00
2018-06-04T13:00:09.094Z,99681.00
2018-06-04T13:02:36.634Z,99686.00
2018-06-04T13:05:04.206Z,99675.00
2018-06-04T13:07:31.748Z,99669.00
2018-06-04T13:09:59.285Z,99667.00
2018-06-04T13:12:26.826Z,99665.00
2018-06-04T13:14:54.345Z,99658.00
2018-06-04T13:17:21.903Z,99660.00
2018-06-04T13:19:49.432Z,99656.00
2018-06-04T13:22:16.965Z,99651.00
2018-06-04T13:24:44.502Z,99647.00
2018-06-04T13:27:12.055Z,99643.00
2018-06-04T13:29:39.603Z,99641.00
2018-06-04T13:32:07.158Z,99639.00
2018-06-04T13:34:34.685Z,99630.00
2018-06-04T13:37:02.241Z,99636.00
2018-06-04T13:39:29.789Z,99637.00
2018-06-04T13:41:57.341Z,99637.00
2018-06-04T13:44:24.865Z,99644.00
2018-06-04T13:46:52.425Z,99646.00
2018-06-04T13:49:19.961Z,99643.00
2018-06-04T13:51:47.514Z,99643.00
2018-06-04T13:54:15.069Z,99624.00
2018-06-04T13:56:42.628Z,99618.00
2018-06-04T13:59:10.218Z,99623.00
2018-06-04T14:01:37.753Z,99631.00
2018-06-04T14:04:05.317Z,99623.00
2018-06-04T14:06:32.873Z,99621.00
2018-06-04T14:09:00.423Z,99614.00
2018-06-04T14:11:27.969Z,99602.00
2018-06-04T14:13:55.504Z,99615.00
2018-06-04T14:16:23.040Z,99612.00
2018-06-04T14:18:50.600Z,99606.00
2018-06-04T14:21:18.170Z,99624.00
2018-06-04T14:23:45.709Z,99616.00
2018-06-04T14:26:13.246Z,99618.00
2018-06-04T14:28:40.806Z,99621.00
2018-06-04T14:31:08.357Z,99614.00
2018-06-04T14:33:35.934Z,99613.00
2018-06-04T14:36:03.475Z,99612.00
2018-06-04T14:38:31.032Z,99602.00
2018-06-04T14:40:58.659Z,99591.00
2018-06-04T14:43:26.202Z,99580.00
2018-06-04T14:45:53.753Z,99581.00
2018-06-04T14:48:21.282Z,99583.00
2018-06-04T14:50:48.829Z,99572.00
2018-06-04T14:53:16.376Z,99565.00
2018-06-04T14:55:43.946Z,99576.00
2018-06-04T14:58:11.472Z,99573.00
2018-06-04T15:00:39.012Z,99567.00
2018-06-04T15:03:06.558Z,99569.00
2018-06-04T15:05:34.081Z,99557.00
2018-06-04T15:08:01.640Z,99564.00
2018-06-04T15:10:29.170Z,99560.00
2018-06-04T15:12:56.718Z,99556.00
2018-06-04T15:15:24.286Z,99565.00
2018-06-04T15:17:51.820Z,99568.00
2018-06-04T15:20:19.366Z,99554.00
2018-06-04T15:22:46.952Z,99567.00
2018-06-04T15:25:14.488Z,99561.00
2018-06-04T15:27:42.009Z,99553.00
2018-06-04T15:30:09.577Z,99556.00
2018-06-04T15:32:37.167Z,99550.00
2018-06-04T15:35:04.751Z,99550.00
2018-06-04T15:37:32.291Z,99549.00
2018-06-04T15:39:59.831Z,99545.00
2018-06-04T15:42:27.369Z,99542.00
2018-06-04T15:44:54.914Z,99543.00
2018-06-04T15:47:22.464Z,99538.00
2018-06-04T15:49:50.009Z,99535.00
2018-06-04T15:52:17.549Z,99545.00
2018-06-04T15:54:45.093Z,99542.00
2018-06-04T15:57:12.638Z,99543.00
2018-06-04T15:59:40.165Z,99533.00
2018-06-04T16:02:07.706Z,99539.00
2018-06-04T16:04:35.261Z,99531.00
2018-06-04T16:07:02.797Z,99537.00
2018-06-04T16:09:30.385Z,99541.00
2018-06-04T16:11:57.906Z,99536.00
2018-06-04T16:14:25.453Z,99536.00
2018-06-04T16:16:53.001Z,99534.00
2018-06-04T16:19:20.543Z,99529.00
2018-06-04T16:21:48.060Z,99519.00
2018-06-04T16:24:15.597Z,99525.00
2018-06-04T16:26:43.137Z,99533.00
2018-06-04T16:29:10.686Z,99525.00
2018-06-04T16:31:38.225Z,99525.00
2018-06-04T16:34:05.786Z,99525.00
2018-06-04T16:36:33.366Z,99530.00
2018-06-04T16:39:00.907Z,99526.00
2018-06-04T16:41:28.449Z,99531.00
2018-06-04T16:43:55.986Z,99533.00
2018-06-04T16:46:23.538Z,99521.00
2018-06-04T16:48:51.088Z,99521.00
2018-06-04T16:51:18.658Z,99511.00
2018-06-04T16:53:46.195Z,99506.00
2018-06-04T16:56:13.746Z,99514.00
2018-06-04T16:58:41.296Z,99512.00
2018-06-04T17:01:08.847Z,99513.00
2018-06-04T17:03:36.374Z,99502.00
2018-06-04T17:06:03.978Z,99503.00
2018-06-04T17:08:31.538Z,99502.00
2018-06-04T17:10:59.080Z,99501.00
2018-06-04T17:13:26.621Z,99503.00
2018-06-04T17:15:54.174Z,99500.00
2018-06-04T17:18:21.716Z,99498.00
2018-06-04T17:20:49.279Z,99495.00
2018-06-04T17:23:16.821Z,99493.00
2018-06-04T17:25:44.402Z,99498.00
2018-06-04T17:28:11.943Z,99499.00
2018-06-04T17:30:39.497Z,99498.00
2018-06-04T17:33:07.034Z,99496.00
2018-06-04T17:35:34.602Z,99492.00
2018-06-04T17:38:02.130Z,99492.00
2018-06-04T17:40:29.684Z,99491.00
2018-06-04T17:42:57.231Z,99479.00
2018-06-04T17:45:24.788Z,99484.00
2018-06-04T17:47:52.333Z,99480.00
2018-06-04T17:50:19.885Z,99477.00
2018-06-04T17:52:47.437Z,99478.00
2018-06-04T17:55:14.998Z,99475.00
2018-06-04T17:57:42.559Z,99477.00
2018-06-04T18:00:10.170Z,99471.00
2018-06-04T18:02:37.717Z,99469.00
2018-06-04T18:05:05.287Z,99472.00
2018-06-04T18:07:32.855Z,99473.00
2018-06-04T18:10:00.386Z,99470.00
2018-06-04T18:12:27.956Z,99471.00
2018-06-04T18:14:55.502Z,99467.00
2018-06-04T18:17:23.041Z,99466.00
2018-06-04T18:19:50.577Z,99469.00
2018-06-04T18:22:18.134Z,99469.00
2018-06-04T18:24:45.669Z,99472.00
2018-06-04T18:27:13.222Z,99474.00
2018-06-04T18:29:40.771Z,99476.00
2018-06-04T18:32:08.321Z,99477.00
2018-06-04T18:34:35.870Z,99477.00
2018-06-04T18:37:03.438Z,99477.00
2018-06-04T18:39:30.981Z,99487.00
2018-06-04T18:41:58.550Z,99481.00
2018-06-04T18:44:26.120Z,99486.00
2018-06-04T18:46:53.665Z,99479.00
2018-06-04T18:49:21.227Z,99487.00
2018-06-04T18:51:48.778Z,99491.00
2018-06-04T18:54:16.343Z,99492.00
2018-06-04T18:56:43.885Z,99495.00
2018-06-04T18:59:11.441Z,99493.00
2018-06-04T19:01:38.985Z,99483.00
2018-06-04T19:04:06.541Z,99496.00
2018-06-04T19:06:34.095Z,99495.00
2018-06-04T19:09:01.789Z,99489.00
2018-06-04T19:11:29.229Z,99487.00
2018-06-04T19:13:56.802Z,99490.00
2018-06-04T19:16:24.355Z,99499.00
2018-06-04T19:19:11.179Z,99495.00
2018-06-04T19:21:38.737Z,99494.00
2018-06-04T19:24:06.298Z,99504.00
2018-06-04T19:26:33.853Z,99509.00
2018-06-04T19:29:01.432Z,99511.00
2018-06-04T19:31:28.982Z,99518.00
2018-06-04T19:33:56.734Z,99515.00
2018-06-04T19:36:24.289Z,99518.00
2018-06-04T19:38:51.825Z,99530.00
2018-06-04T19:41:19.413Z,99531.00
2018-06-04T19:43:46.992Z,99530.00
2018-06-04T19:46:14.533Z,99528.00
2018-06-04T19:48:42.069Z,99536.00
2018-06-04T19:51:09.646Z,99531.00
2018-06-04T19:53:37.200Z,99529.00
2018-06-04T19:56:04.825Z,99533.00
2018-06-04T19:58:32.394Z,99545.00
2018-06-04T20:00:59.982Z,99543.00
2018-06-04T20:03:27.566Z,99543.00
2018-06-04T20:05:55.182Z,99550.00
2018-06-04T20:08:22.766Z,99549.00
2018-06-04T20:10:50.334Z,99545.00
2018-06-04T20:13:17.891Z,99557.00
2018-06-04T20:15:45.437Z,99563.00
2018-06-04T20:18:12.964Z,99557.00
2018-06-04T20:20:40.506Z,99551.00
2018-06-04T20:23:08.051Z,99541.00
2018-06-04T20:25:35.613Z,99544.00
2018-06-04T20:28:03.170Z,99547.00
2018-06-04T20:30:30.731Z,99554.00
2018-06-04T20:32:58.285Z,99557.00
2018-06-04T20:35:25.813Z,99554.00
2018-06-04T20:37:53.405Z,99567.00
2018-06-04T20:40:20.991Z,99568.00
2018-06-04T20:42:48.553Z,99567.00
2018-06-04T20:45:16.118Z,99569.00
2018-06-04T20:47:43.657Z,99579.00
2018-06-04T20:50:11.206Z,99580.00
2018-06-04T20:55:53.154Z,99575.00
2018-06-04T20:58:24.138Z,99573.00
2018-06-04T21:01:08.138Z,99566.00
2018-06-04T21:04:05.861Z,99563.00
2018-06-04T21:12:35.480Z,99571.00
2018-06-04T21:15:03.053Z,99570.00
2018-06-04T21:20:50.688Z,99566.00
2018-06-04T21:23:18.232Z,99570.00
2018-06-04T21:25:45.814Z,99574.00
2018-06-04T21:28:13.381Z,99569.00
2018-06-04T21:30:40.940Z,99564.00
2018-06-04T21:33:08.473Z,99568.00
2018-06-04T21:35:36.027Z,99569.00
2018-06-04T21:38:03.634Z,99569.00
2018-06-04T21:40:50.485Z,99571.00
2018-06-04T21:46:21.565Z,99570.00
2018-06-04T21:48:49.093Z,99575.00
2018-06-04T21:51:17.555Z,99573.00
2018-06-04T21:53:45.145Z,99572.00
2018-06-04T21:56:12.685Z,99577.00
2018-06-04T21:58:40.233Z,99581.00
2018-06-04T22:01:07.789Z,99587.00
2018-06-04T22:03:35.322Z,99585.00
2018-06-04T22:06:02.946Z,99581.00
2018-06-04T22:08:30.522Z,99588.00
2018-06-04T22:10:58.578Z,99579.00
2018-06-04T22:13:26.146Z,99593.00
2018-06-04T22:15:53.714Z,99595.00
2018-06-04T22:18:21.273Z,99588.00
2018-06-04T22:20:48.850Z,99591.00
2018-06-04T22:23:16.436Z,99578.00
2018-06-04T22:25:43.982Z,99588.00
2018-06-04T22:28:11.541Z,99599.00
2018-06-04T22:30:39.100Z,99599.00
2018-06-04T22:33:06.657Z,99597.00
2018-06-04T22:35:34.192Z,99599.00
2018-06-04T22:38:01.742Z,99602.00
2018-06-04T22:40:29.285Z,99598.00
2018-06-04T22:42:56.834Z,99612.00
2018-06-04T22:45:24.385Z,99601.00
2018-06-04T22:47:51.964Z,99591.00
2018-06-04T22:50:19.515Z,99594.00
2018-06-04T22:52:47.073Z,99592.00
2018-06-04T22:55:14.626Z,99602.00
2018-06-04T22:57:42.217Z,99601.00
2018-06-04T23:00:13.710Z,99602.00
2018-06-04T23:02:41.253Z,99602.00
2018-06-04T23:05:08.805Z,99598.00
2018-06-04T23:07:36.381Z,99608.00
2018-06-04T23:10:03.948Z,99605.00
2018-06-04T23:12:31.514Z,99606.00
2018-06-04T23:14:59.050Z,99610.00
2018-06-04T23:17:27.390Z,99607.00
2018-06-04T23:19:54.921Z,99605.00
2018-06-04T23:22:22.461Z,99607.00
2018-06-04T23:24:50.014Z,99612.00
2018-06-04T23:27:17.562Z,99608.00
2018-06-04T23:29:45.117Z,99612.00
2018-06-04T23:32:12.656Z,99613.00
2018-06-04T23:34:40.250Z,99614.00
2018-06-04T23:37:07.784Z,99614.00
2018-06-04T23:39:35.324Z,99623.00
2018-06-04T23:42:02.881Z,99623.00
2018-06-04T23:44:30.441Z,99621.00
2018-06-04T23:46:57.978Z,99617.00
2018-06-04T23:49:25.546Z,99622.00
2018-06-04T23:51:53.705Z,99625.00
2018-06-04T23:54:21.253Z,99619.00
2018-06-04T23:56:48.790Z,99624.00
2018-06-04T23:59:16.329Z,99619.00
